Lake Fork, IL (62541)

8:05 PM CST on January 29, 2015 (GMT -0600)
S. Lanesville | Change Station
CLOSE
Current Station
Personal Weather Station
Location: Mechanicsburg, IL
Elevation: 591 ft
Nearby Weather Stations
Active Advisory: Special Statement

Elev 591 ft 39.85 °N, 89.35 °W | Updated 11 minutes ago

Overcast
Overcast
33.8 °F
Feels Like 24 °F
N
15.0
Wind Variable Wind from WNW
Gusts 19.0 mph

Today
High -- | Low -- °F
--% Chance of Precip.
Yesterday
High -- | Low -- °F
Precip. -- in
7:08 AM 5:12 PM
Waxing Gibbous, 79% visible
Pressure 30.33 in
Visibility 10.0 miles
Clouds Overcast 2300 ft
Windchill 24 °F
Dew Point 30 °F
Humidity 85%
Rainfall 0.00 in
Snow Depth Not available.
UV 0 out of 12
Pollen 1.00 out of 12
Air Quality Not available.
Flu Activity Not available.
METAR KAAA 300155Z AUTO 33008G14KT 290V030 10SM OVC023 02/M01 A3033 RMK AO2 T00181015

More Conditions Fewer Conditions

Pressure 30.33 in
Visibility 10.0 miles
Clouds Overcast 2300 ft
Windchill 24 °F
Dew Point 30 °F
Humidity 85%
Rainfall 0.00 in
Snow Depth Not available.
UV 0 out of 12
Pollen 1.00 out of 12
Air Quality Not available.
Flu Activity Not available.
METAR KAAA 300155Z AUTO 33008G14KT 290V030 10SM OVC023 02/M01 A3033 RMK AO2 T00181015

More Conditions Fewer Conditions

10-Day Weather Forecast

Almanac

Astronomy

Jan. 29, 2015 Rise Set
Actual Time
Civil Twilight
Nautical Twilight
Astronomical Twilight
Moon
Length of Visible Light
Length of Day
Tomorrow will be .
, % of the Moon is Illuminated

Today's Extremes

State Highs State Lows

Community

WunderPhotos

Upload Photos

1,791,688 photos uploaded!

WunderBlogs® & News

Nearby

Air Quality

  Air Quality AQ Index Pollutant
Not available.

Snow Depth

Station Depth Elevation

Earthquake Activity

City Distance Mag. Time & Date
Minimum magnitude displayed is 2.5.

Coastal Water Temperatures

Place Temperature

Nearby Weather Stations